Time;durP1;ratioP1;P1;durP2;ratioP2;P2;SDS_P1;SDS_P2;PMS_P1;PMS_P2;Temp;Humidity;BMP_temperature;BMP_pressure;BME280_temperature;BME280_humidity;BME280_pressure;Samples;Min_cycle;Max_cycle;Signal;HPM_P1;HPM_P2
2021/10/13 00:00:14;;;;;;;17.70;12.38;;;16.60;52.90;;;;;;5007850;28;20079;-80
2021/10/13 00:02:40;;;;;;;20.70;13.55;;;16.60;52.90;;;;;;5021046;28;20060;-80
2021/10/13 00:05:07;;;;;;;23.77;13.02;;;16.60;53.00;;;;;;5021884;28;20057;-81
2021/10/13 00:07:34;;;;;;;20.80;13.40;;;16.60;52.90;;;;;;5018461;28;20100;-80
2021/10/13 00:10:00;;;;;;;20.48;12.35;;;16.60;53.00;;;;;;5003821;28;20026;-81
2021/10/13 00:12:27;;;;;;;17.52;12.63;;;16.60;53.10;;;;;;4989837;28;20076;-80
2021/10/13 00:14:53;;;;;;;17.92;12.57;;;16.60;53.10;;;;;;5007268;28;20034;-80
2021/10/13 00:17:19;;;;;;;18.23;13.30;;;16.60;53.10;;;;;;5021717;28;20120;-82
2021/10/13 00:19:45;;;;;;;20.35;12.52;;;16.60;53.10;;;;;;4987556;28;20472;-80
2021/10/13 00:22:11;;;;;;;17.50;12.88;;;16.60;53.20;;;;;;4988260;28;20096;-80
2021/10/13 00:24:37;;;;;;;23.63;13.20;;;16.60;53.30;;;;;;5025505;28;20030;-81
2021/10/13 00:27:03;;;;;;;18.10;12.95;;;16.60;53.40;;;;;;5008830;28;20365;-81
2021/10/13 00:29:30;;;;;;;19.13;13.00;;;16.60;53.30;;;;;;5004070;28;20057;-81
2021/10/13 00:31:56;;;;;;;19.38;13.00;;;16.60;53.20;;;;;;4996100;28;20029;-81
2021/10/13 00:34:22;;;;;;;21.15;13.23;;;16.60;53.30;;;;;;5007415;28;20029;-81
2021/10/13 00:36:48;;;;;;;20.63;12.60;;;16.60;53.30;;;;;;5011819;28;20120;-82
2021/10/13 00:39:14;;;;;;;22.13;13.55;;;16.60;53.30;;;;;;5005814;28;20030;-82
2021/10/13 00:41:40;;;;;;;17.73;13.18;;;16.60;53.20;;;;;;5025764;28;20029;-81
2021/10/13 00:44:06;;;;;;;21.95;12.82;;;16.60;53.20;;;;;;5026364;28;20470;-81
2021/10/13 00:46:32;;;;;;;17.48;13.27;;;16.60;53.40;;;;;;4991793;28;20049;-82
2021/10/13 00:49:00;;;;;;;18.45;13.20;;;16.60;53.40;;;;;;5005845;28;20049;-83
2021/10/13 00:51:28;;;;;;;22.67;13.40;;;16.60;53.40;;;;;;4995361;28;20065;-83
2021/10/13 00:53:53;;;;;;;17.88;12.48;;;16.60;53.40;;;;;;5005318;28;20100;-82
2021/10/13 00:56:19;;;;;;;18.75;13.80;;;16.60;53.40;;;;;;5026145;28;20496;-82
2021/10/13 00:58:45;;;;;;;20.52;13.35;;;16.60;53.50;;;;;;4993097;28;20056;-83
2021/10/13 01:01:37;;;;;;;22.45;13.43;;;16.60;53.50;;;;;;5012200;28;20879;-83
2021/10/13 01:04:40;;;;;;;22.80;13.68;;;16.60;53.50;;;;;;5006122;28;20033;-82
2021/10/13 01:07:28;;;;;;;18.67;13.10;;;16.50;53.40;;;;;;5023168;28;20067;-82
2021/10/13 01:10:35;;;;;;;18.92;13.05;;;16.50;53.40;;;;;;4988989;28;20037;-81
2021/10/13 01:13:37;;;;;;;20.08;12.70;;;16.50;53.50;;;;;;5026756;28;20128;-81
2021/10/13 01:16:22;;;;;;;21.63;12.63;;;16.50;53.50;;;;;;5009430;28;20038;-81
2021/10/13 01:18:55;;;;;;;21.85;12.88;;;16.50;53.50;;;;;;5005332;28;20036;-82
2021/10/13 01:21:46;;;;;;;15.88;12.07;;;16.50;53.60;;;;;;5006215;28;20022;-82
2021/10/13 01:24:30;;;;;;;20.10;12.48;;;16.50;53.60;;;;;;4989813;28;20120;-81
2021/10/13 01:27:14;;;;;;;17.15;12.18;;;16.50;53.50;;;;;;5023423;28;20087;-82
2021/10/13 01:29:41;;;;;;;19.25;12.43;;;16.50;53.60;;;;;;5025582;28;20049;-84
2021/10/13 01:32:14;;;;;;;18.80;12.25;;;16.50;53.60;;;;;;5005121;28;20033;-82
2021/10/13 01:34:45;;;;;;;18.55;12.40;;;16.50;53.70;;;;;;4993522;28;20036;-82
2021/10/13 01:37:16;;;;;;;20.50;12.70;;;16.50;53.80;;;;;;5007649;28;20388;-83
2021/10/13 01:39:44;;;;;;;18.83;11.75;;;16.50;53.70;;;;;;5009045;28;20040;-82
2021/10/13 01:42:13;;;;;;;18.67;11.98;;;16.50;53.80;;;;;;5023737;28;20039;-82
2021/10/13 01:44:40;;;;;;;19.02;12.20;;;16.50;53.80;;;;;;5023610;28;20157;-82
2021/10/13 01:47:08;;;;;;;19.00;12.43;;;16.50;53.70;;;;;;5005246;28;20457;-81
2021/10/13 01:49:36;;;;;;;19.23;12.50;;;16.50;53.80;;;;;;5022007;28;20033;-82
2021/10/13 01:52:03;;;;;;;19.90;12.07;;;16.50;53.80;;;;;;5023123;28;20029;-82
2021/10/13 01:54:31;;;;;;;20.83;12.80;;;16.50;53.80;;;;;;4989555;28;20159;-81
2021/10/13 01:57:01;;;;;;;19.88;12.68;;;16.50;53.90;;;;;;5023581;28;20057;-80
2021/10/13 01:59:29;;;;;;;18.33;12.52;;;16.50;53.90;;;;;;5004932;28;20036;-82
2021/10/13 02:01:57;;;;;;;18.00;11.80;;;16.50;53.80;;;;;;5009445;28;20042;-80
2021/10/13 02:04:25;;;;;;;16.95;11.73;;;16.50;53.80;;;;;;5002268;28;20409;-81
2021/10/13 02:06:52;;;;;;;17.73;12.07;;;16.50;53.90;;;;;;5007207;28;20108;-81
2021/10/13 02:09:22;;;;;;;19.67;12.70;;;16.50;53.90;;;;;;5026591;28;20357;-81
2021/10/13 02:11:48;;;;;;;21.55;12.23;;;16.50;53.90;;;;;;5009547;28;20064;-81
2021/10/13 02:14:17;;;;;;;17.38;11.63;;;16.50;54.50;;;;;;5021182;28;20477;-81
2021/10/13 02:16:47;;;;;;;17.63;12.52;;;16.50;53.90;;;;;;5023589;28;20069;-82
2021/10/13 02:19:16;;;;;;;16.90;11.68;;;16.60;54.10;;;;;;5021310;28;20044;-81
2021/10/13 02:21:47;;;;;;;20.05;12.38;;;16.50;53.90;;;;;;5007198;28;20048;-82
2021/10/13 02:24:17;;;;;;;16.23;11.82;;;16.60;53.90;;;;;;4993157;28;20033;-80
2021/10/13 02:26:46;;;;;;;16.55;11.60;;;16.50;53.90;;;;;;5022087;28;20103;-82
2021/10/13 02:29:17;;;;;;;17.33;11.82;;;16.60;53.90;;;;;;5022031;28;20420;-82
2021/10/13 02:31:44;;;;;;;18.50;11.60;;;16.60;53.90;;;;;;5009005;28;20061;-83
2021/10/13 02:34:11;;;;;;;17.48;11.77;;;16.60;53.80;;;;;;5021521;28;20033;-82
2021/10/13 02:36:38;;;;;;;17.30;12.15;;;16.60;53.60;;;;;;5022150;28;20037;-82
2021/10/13 02:39:06;;;;;;;17.67;11.60;;;16.50;53.60;;;;;;5022873;28;20026;-82
2021/10/13 02:41:33;;;;;;;16.75;11.35;;;16.50;53.80;;;;;;5023539;28;20033;-81
2021/10/13 02:43:59;;;;;;;19.92;11.60;;;16.60;54.00;;;;;;5004759;28;20033;-82
2021/10/13 02:46:33;;;;;;;18.35;10.82;;;16.50;53.90;;;;;;4991407;28;20046;-82
2021/10/13 02:49:15;;;;;;;21.60;11.13;;;16.50;53.80;;;;;;5009647;28;20569;-82
2021/10/13 02:51:51;;;;;;;16.83;11.18;;;16.50;53.80;;;;;;5004596;28;20032;-81
2021/10/13 02:54:27;;;;;;;16.33;10.52;;;16.50;53.90;;;;;;5020860;28;20495;-81
2021/10/13 02:56:56;;;;;;;;;;;16.50;53.80;;;;;;5023678;28;21115;-83
2021/10/13 02:59:37;;;;;;;16.65;10.85;;;16.50;53.90;;;;;;5004039;28;20327;-82
2021/10/13 03:02:08;;;;;;;19.27;10.50;;;16.50;53.70;;;;;;5005215;28;20033;-82
2021/10/13 03:04:57;;;;;;;14.95;10.77;;;16.50;53.80;;;;;;5007954;28;20532;-81
2021/10/13 03:07:28;;;;;;;17.75;10.90;;;16.50;53.90;;;;;;5001200;28;20510;-81
2021/10/13 03:10:00;;;;;;;15.98;10.27;;;16.50;54.00;;;;;;5020842;28;20404;-82
2021/10/13 03:12:30;;;;;;;18.10;10.98;;;16.50;54.10;;;;;;5020842;28;20551;-82
2021/10/13 03:14:59;;;;;;;19.95;10.77;;;16.50;53.90;;;;;;5020664;28;20034;-82
2021/10/13 03:17:25;;;;;;;16.73;10.57;;;16.50;53.80;;;;;;5006907;28;20586;-81
2021/10/13 03:19:53;;;;;;;12.88;9.75;;;16.50;53.90;;;;;;5023048;28;20072;-82
2021/10/13 03:22:22;;;;;;;14.27;9.63;;;16.50;54.00;;;;;;4992230;28;20518;-82
2021/10/13 03:24:47;;;;;;;15.35;10.15;;;16.50;54.00;;;;;;5007881;28;20453;-81
2021/10/13 03:27:13;;;;;;;14.85;10.85;;;16.50;54.00;;;;;;4991471;28;20135;-80
2021/10/13 03:29:41;;;;;;;17.13;9.40;;;16.50;54.10;;;;;;5019465;28;20026;-81
2021/10/13 03:32:07;;;;;;;16.70;10.00;;;16.60;54.20;;;;;;5019608;28;20044;-81
2021/10/13 03:34:34;;;;;;;16.85;9.95;;;16.50;54.10;;;;;;4989673;28;20471;-81
2021/10/13 03:37:01;;;;;;;17.38;10.18;;;16.50;54.20;;;;;;5020657;28;20130;-81
2021/10/13 03:39:27;;;;;;;15.68;9.77;;;16.50;54.20;;;;;;5006144;28;20394;-82
2021/10/13 03:41:53;;;;;;;14.68;10.10;;;16.50;54.20;;;;;;5008259;28;20044;-81
2021/10/13 03:44:19;;;;;;;17.52;9.88;;;16.60;54.10;;;;;;5007388;28;20068;-81
2021/10/13 03:46:46;;;;;;;15.45;9.77;;;16.50;54.00;;;;;;5021107;28;20034;-81
2021/10/13 03:49:11;;;;;;;15.57;9.85;;;16.60;54.10;;;;;;5019647;28;20064;-80
2021/10/13 03:51:37;;;;;;;17.92;10.35;;;16.60;54.10;;;;;;5019208;28;20495;-81
2021/10/13 03:54:04;;;;;;;15.45;9.40;;;16.60;54.10;;;;;;5020340;28;20076;-81
2021/10/13 03:56:30;;;;;;;15.77;9.52;;;16.50;54.10;;;;;;5005904;28;20045;-82
2021/10/13 03:58:57;;;;;;;14.30;9.27;;;16.50;54.00;;;;;;5010371;28;20115;-80
2021/10/13 04:01:23;;;;;;;17.00;9.18;;;16.50;54.10;;;;;;5006477;28;20038;-80
2021/10/13 04:03:49;;;;;;;15.57;10.02;;;16.60;54.00;;;;;;5025545;28;20160;-82
2021/10/13 04:06:14;;;;;;;17.90;9.73;;;16.60;54.10;;;;;;5013080;28;20070;-83
2021/10/13 04:08:40;;;;;;;14.45;9.20;;;16.50;54.00;;;;;;5013798;28;20073;-80
2021/10/13 04:11:06;;;;;;;14.00;9.32;;;16.60;54.10;;;;;;5015974;28;20061;-80
2021/10/13 04:13:32;;;;;;;13.25;9.77;;;16.60;54.10;;;;;;5025998;28;20075;-82
2021/10/13 04:15:58;;;;;;;14.70;8.90;;;16.50;54.20;;;;;;5026578;28;20025;-80
2021/10/13 04:18:24;;;;;;;13.10;9.43;;;16.60;54.20;;;;;;5024824;28;20040;-81
2021/10/13 04:20:50;;;;;;;14.25;8.98;;;16.60;54.10;;;;;;5026678;28;20120;-81
2021/10/13 04:23:16;;;;;;;18.27;9.75;;;16.60;54.20;;;;;;5016289;28;20037;-81
2021/10/13 04:25:42;;;;;;;13.65;8.70;;;16.60;54.30;;;;;;5014984;28;20061;-83
2021/10/13 04:28:08;;;;;;;14.27;9.43;;;16.60;54.20;;;;;;5001640;28;20071;-81
2021/10/13 04:30:37;;;;;;;13.02;9.18;;;16.60;54.10;;;;;;5024358;28;20065;-81
2021/10/13 04:33:04;;;;;;;15.35;9.43;;;16.50;54.10;;;;;;5006176;28;20038;-81
2021/10/13 04:35:31;;;;;;;13.95;9.10;;;16.60;54.20;;;;;;5024413;28;20368;-81
2021/10/13 04:37:57;;;;;;;14.45;9.43;;;16.60;54.20;;;;;;5007313;28;20033;-81
2021/10/13 04:40:23;;;;;;;14.50;8.80;;;16.60;54.20;;;;;;5006143;28;20048;-81
2021/10/13 04:42:49;;;;;;;14.82;9.30;;;16.60;54.10;;;;;;5025553;28;20075;-82
2021/10/13 04:45:15;;;;;;;13.13;8.75;;;16.50;54.20;;;;;;5026785;28;20061;-80
2021/10/13 04:47:41;;;;;;;14.65;8.95;;;16.60;54.30;;;;;;5024446;28;20033;-81
2021/10/13 04:50:07;;;;;;;14.07;8.88;;;16.60;54.30;;;;;;5006134;28;20523;-81
2021/10/13 04:52:33;;;;;;;14.25;8.85;;;16.60;54.20;;;;;;5005138;28;20103;-79
2021/10/13 04:54:59;;;;;;;14.98;8.75;;;16.60;54.30;;;;;;4995367;28;20040;-82
2021/10/13 04:57:25;;;;;;;14.38;8.98;;;16.60;54.30;;;;;;5025094;28;21187;-80
2021/10/13 04:59:54;;;;;;;15.60;8.50;;;16.60;54.30;;;;;;5008466;28;20093;-82
2021/10/13 05:02:20;;;;;;;19.08;9.00;;;16.60;54.30;;;;;;5007181;28;20069;-81
2021/10/13 05:04:46;;;;;;;16.85;8.90;;;16.60;54.30;;;;;;5025811;28;20064;-85
2021/10/13 05:07:12;;;;;;;14.65;8.40;;;16.60;54.30;;;;;;5011160;28;20516;-91
2021/10/13 05:09:38;;;;;;;12.55;8.10;;;16.60;54.80;;;;;;5021823;28;20025;-85
2021/10/13 05:12:04;;;;;;;14.25;8.35;;;16.60;55.40;;;;;;5027622;28;20039;-90
2021/10/13 05:14:30;;;;;;;13.98;8.60;;;16.60;55.50;;;;;;5035044;28;20033;-86
2021/10/13 05:16:56;;;;;;;15.15;9.02;;;16.60;55.40;;;;;;5017734;28;20041;-86
2021/10/13 05:19:22;;;;;;;14.63;8.65;;;16.60;55.30;;;;;;5032841;28;20132;-89
2021/10/13 05:21:48;;;;;;;14.35;8.18;;;16.60;55.30;;;;;;5018051;28;20120;-91
2021/10/13 05:24:14;;;;;;;19.83;9.63;;;16.60;55.30;;;;;;5035334;28;20266;-89
2021/10/13 05:26:39;;;;;;;13.90;8.50;;;16.60;55.40;;;;;;5035181;28;20041;-86
2021/10/13 05:29:05;;;;;;;14.07;8.75;;;16.60;56.00;;;;;;5033643;28;20049;-87
2021/10/13 05:31:31;;;;;;;13.90;8.93;;;16.60;56.10;;;;;;5037056;28;20147;-86
2021/10/13 05:33:57;;;;;;;16.23;9.18;;;16.60;56.40;;;;;;5036302;28;20022;-86
2021/10/13 05:36:23;;;;;;;13.35;8.40;;;16.60;56.20;;;;;;5050820;28;20025;-86
2021/10/13 05:38:49;;;;;;;16.67;9.55;;;16.50;55.20;;;;;;4996745;28;20025;-83
2021/10/13 05:41:15;;;;;;;18.23;9.10;;;16.50;54.60;;;;;;5023337;28;20033;-84
2021/10/13 05:43:41;;;;;;;16.77;9.98;;;16.40;54.30;;;;;;5023058;28;20030;-84
2021/10/13 05:46:06;;;;;;;16.42;9.68;;;16.40;54.20;;;;;;5024750;28;20044;-84
2021/10/13 05:48:32;;;;;;;17.42;8.73;;;16.30;54.40;;;;;;5005764;28;20056;-81
2021/10/13 05:50:58;;;;;;;15.30;9.93;;;16.20;54.40;;;;;;5024850;28;20116;-85
2021/10/13 05:53:25;;;;;;;16.58;9.77;;;16.20;54.60;;;;;;5023021;28;20033;-84
2021/10/13 05:55:50;;;;;;;13.50;8.98;;;16.20;54.80;;;;;;5006317;28;20049;-84
2021/10/13 05:58:19;;;;;;;15.57;9.63;;;16.10;54.70;;;;;;5024208;28;20033;-84
2021/10/13 06:00:45;;;;;;;18.90;9.60;;;16.10;54.60;;;;;;5021693;28;20674;-84
2021/10/13 06:03:11;;;;;;;16.13;9.35;;;16.10;54.60;;;;;;5022420;28;20029;-83
2021/10/13 06:05:37;;;;;;;16.48;9.68;;;16.10;54.90;;;;;;5008871;28;20033;-83
2021/10/13 06:08:03;;;;;;;15.00;9.68;;;16.10;55.10;;;;;;5023065;28;20029;-82
2021/10/13 06:10:29;;;;;;;14.82;9.45;;;16.00;55.30;;;;;;5022420;28;20477;-84
2021/10/13 06:12:55;;;;;;;15.15;9.30;;;16.00;55.50;;;;;;4992671;28;20149;-83
2021/10/13 06:15:23;;;;;;;14.95;10.45;;;16.00;55.60;;;;;;5005430;28;20416;-85
2021/10/13 06:17:49;;;;;;;16.20;9.27;;;16.00;55.60;;;;;;5013574;28;20038;-84
2021/10/13 06:20:15;;;;;;;12.82;9.15;;;16.00;55.80;;;;;;5031117;28;20068;-83
2021/10/13 06:22:42;;;;;;;18.23;10.02;;;16.00;55.90;;;;;;5033365;28;20423;-85
2021/10/13 06:25:08;;;;;;;24.70;10.82;;;16.00;55.80;;;;;;5016986;28;20041;-84
2021/10/13 06:27:34;;;;;;;16.35;9.88;;;16.00;55.60;;;;;;5018333;28;20037;-82
2021/10/13 06:30:00;;;;;;;17.13;10.43;;;16.00;55.60;;;;;;5019478;28;20026;-85
2021/10/13 06:32:26;;;;;;;17.23;9.43;;;15.90;55.60;;;;;;5016310;28;20034;-84
2021/10/13 06:34:52;;;;;;;16.98;10.70;;;15.90;55.60;;;;;;5032593;28;20524;-83
2021/10/13 06:37:17;;;;;;;19.83;11.38;;;15.90;55.60;;;;;;5014743;28;20065;-83
2021/10/13 06:39:43;;;;;;;18.17;9.73;;;15.90;55.60;;;;;;5030425;28;20040;-83
2021/10/13 06:42:09;;;;;;;16.33;10.15;;;15.90;55.50;;;;;;5019859;28;20037;-83
2021/10/13 06:44:35;;;;;;;21.23;10.32;;;15.90;55.20;;;;;;5016214;28;20044;-83
2021/10/13 06:47:01;;;;;;;19.10;10.25;;;15.80;55.40;;;;;;5032795;28;20044;-84
2021/10/13 06:49:27;;;;;;;20.38;11.50;;;15.80;55.10;;;;;;5013739;28;20123;-85
2021/10/13 06:51:53;;;;;;;17.30;9.88;;;15.90;55.20;;;;;;5027437;28;21873;-83
2021/10/13 06:54:19;;;;;;;24.83;10.88;;;15.90;55.20;;;;;;5020696;28;20037;-84
2021/10/13 06:56:45;;;;;;;17.67;10.98;;;15.90;54.90;;;;;;5007714;28;20077;-85
2021/10/13 06:59:10;;;;;;;17.35;9.85;;;15.90;55.10;;;;;;5022801;28;20091;-84
2021/10/13 07:01:36;;;;;;;19.55;10.52;;;15.90;54.90;;;;;;5026047;28;20044;-85
2021/10/13 07:04:02;;;;;;;14.80;9.80;;;16.00;54.90;;;;;;5012051;28;20128;-85
2021/10/13 07:06:28;;;;;;;18.08;11.20;;;16.00;54.90;;;;;;5014087;28;20408;-84
2021/10/13 07:08:54;;;;;;;16.13;10.10;;;16.00;54.70;;;;;;5031829;28;20033;-83
2021/10/13 07:11:21;;;;;;;16.85;11.13;;;15.90;55.00;;;;;;5032180;28;20120;-85
2021/10/13 07:13:48;;;;;;;15.40;10.77;;;15.90;54.80;;;;;;5013410;28;20091;-85
2021/10/13 07:16:14;;;;;;;18.15;10.82;;;16.00;54.60;;;;;;5003337;28;20025;-84
2021/10/13 07:18:40;;;;;;;17.52;10.80;;;16.00;54.60;;;;;;5031793;28;20455;-85
2021/10/13 07:21:06;;;;;;;19.42;10.70;;;15.90;54.50;;;;;;5031711;28;20038;-83
2021/10/13 07:23:32;;;;;;;21.27;11.32;;;16.00;54.70;;;;;;5013487;28;20124;-84
2021/10/13 07:25:58;;;;;;;18.38;11.00;;;16.00;54.40;;;;;;5031759;28;20091;-84
2021/10/13 07:28:26;;;;;;;18.23;10.82;;;16.00;54.40;;;;;;5031575;28;20037;-84
2021/10/13 07:30:52;;;;;;;16.50;10.88;;;16.00;54.50;;;;;;5031359;28;20040;-84
2021/10/13 07:33:18;;;;;;;19.10;10.82;;;16.00;54.60;;;;;;5028497;28;20496;-84
2021/10/13 07:35:44;;;;;;;18.50;11.52;;;16.00;54.70;;;;;;5031456;28;20029;-84
2021/10/13 07:38:11;;;;;;;21.23;10.70;;;16.00;54.60;;;;;;5031807;28;20048;-83
2021/10/13 07:40:38;;;;;;;20.92;11.60;;;16.00;54.60;;;;;;5014339;28;20406;-82
2021/10/13 07:43:04;;;;;;;19.85;11.60;;;16.00;54.60;;;;;;5010935;28;20041;-83
2021/10/13 07:45:30;;;;;;;18.67;11.90;;;16.10;55.00;;;;;;5023211;28;20033;-85
2021/10/13 07:47:56;;;;;;;20.40;11.48;;;16.10;55.10;;;;;;5005126;28;20033;-85
2021/10/13 07:50:22;;;;;;;19.08;12.23;;;16.10;54.90;;;;;;5029999;28;20496;-84
2021/10/13 07:52:48;;;;;;;18.67;12.60;;;16.10;55.10;;;;;;5013117;28;20111;-85
2021/10/13 07:55:14;;;;;;;19.50;12.15;;;16.10;55.00;;;;;;5030188;28;20400;-85
2021/10/13 07:57:40;;;;;;;20.77;11.90;;;16.10;54.90;;;;;;5032007;28;20041;-84
2021/10/13 08:00:07;;;;;;;21.40;12.98;;;16.10;54.80;;;;;;5013536;28;20041;-84
2021/10/13 08:02:34;;;;;;;20.27;12.20;;;16.10;55.00;;;;;;5011811;28;20045;-84
2021/10/13 08:05:00;;;;;;;20.65;12.07;;;16.10;55.00;;;;;;5011466;28;20041;-84
2021/10/13 08:07:26;;;;;;;22.58;12.13;;;16.10;55.00;;;;;;5031153;28;20044;-83
2021/10/13 08:09:52;;;;;;;21.73;11.95;;;16.10;55.10;;;;;;5027595;28;20117;-81
2021/10/13 08:12:18;;;;;;;23.30;12.80;;;16.20;55.10;;;;;;5022025;28;20030;-84
2021/10/13 08:14:44;;;;;;;22.50;12.35;;;16.20;55.10;;;;;;5018314;28;20033;-86
2021/10/13 08:17:10;;;;;;;20.45;13.32;;;16.20;55.10;;;;;;5007528;28;20041;-84
2021/10/13 08:19:37;;;;;;;23.27;12.65;;;16.20;55.10;;;;;;4990342;28;20064;-85
2021/10/13 08:22:03;;;;;;;27.10;13.23;;;16.30;55.20;;;;;;4991289;28;20258;-86
2021/10/13 08:24:29;;;;;;;20.17;12.70;;;16.30;55.30;;;;;;5007546;28;20520;-84
2021/10/13 08:26:55;;;;;;;21.95;12.57;;;16.30;55.20;;;;;;5020613;28;20084;-83
2021/10/13 08:29:21;;;;;;;22.13;12.90;;;16.30;55.10;;;;;;5027115;28;20039;-84
2021/10/13 08:31:47;;;;;;;24.67;13.13;;;16.30;55.20;;;;;;5013127;28;20025;-85
2021/10/13 08:34:13;;;;;;;25.27;13.00;;;16.40;55.90;;;;;;5023642;28;20450;-81
2021/10/13 08:36:39;;;;;;;24.92;12.75;;;16.40;56.20;;;;;;5005451;28;20032;-84
2021/10/13 08:39:05;;;;;;;21.95;13.95;;;16.40;56.30;;;;;;5019352;28;20029;-85
2021/10/13 08:41:30;;;;;;;23.20;13.52;;;16.40;55.90;;;;;;5021803;28;20026;-84
2021/10/13 08:43:57;;;;;;;24.65;13.30;;;16.40;55.70;;;;;;5022023;28;20508;-84
2021/10/13 08:46:23;;;;;;;23.10;14.40;;;16.40;55.90;;;;;;5024172;28;20041;-84
2021/10/13 08:48:49;;;;;;;24.98;13.68;;;16.40;55.80;;;;;;5026926;28;20265;-84
2021/10/13 08:51:15;;;;;;;23.02;13.73;;;16.40;55.80;;;;;;5034435;28;20141;-85
2021/10/13 08:53:41;;;;;;;28.35;14.40;;;16.40;56.10;;;;;;5010232;28;20065;-86
2021/10/13 08:56:07;;;;;;;22.77;14.30;;;16.40;55.90;;;;;;5034180;28;20069;-84
2021/10/13 08:58:40;;;;;;;20.88;13.40;;;16.40;56.20;;;;;;5016840;28;20044;-85
2021/10/13 09:01:08;;;;;;;22.60;13.98;;;16.40;55.90;;;;;;5034583;28;20040;-83
2021/10/13 09:03:41;;;;;;;27.10;14.25;;;16.40;56.00;;;;;;5025489;28;20510;-84
2021/10/13 09:06:17;;;;;;;27.23;14.65;;;16.50;56.00;;;;;;5005101;28;20412;-83
2021/10/13 09:08:59;;;;;;;;;;;16.50;56.10;;;;;;5024526;28;20040;-83
2021/10/13 09:11:45;;;;;;;19.73;12.98;;;16.60;56.20;;;;;;4989290;28;20390;-84
2021/10/13 09:14:20;;;;;;;23.58;13.68;;;16.60;56.20;;;;;;5022780;28;20100;-84
2021/10/13 09:17:00;;;;;;;28.02;13.25;;;16.60;56.10;;;;;;5026260;28;20377;-86
2021/10/13 09:19:42;;;;;;;23.50;13.13;;;16.70;56.20;;;;;;5022755;28;20025;-85
2021/10/13 09:22:14;;;;;;;22.55;13.88;;;16.60;56.10;;;;;;5023380;28;20033;-84
2021/10/13 09:24:46;;;;;;;21.63;13.10;;;16.70;55.90;;;;;;5023499;28;20037;-85
2021/10/13 09:27:25;;;;;;;22.92;12.93;;;16.70;55.90;;;;;;5006522;28;20558;-84
2021/10/13 09:30:02;;;;;;;24.42;12.63;;;16.70;56.10;;;;;;5024823;28;20048;-84
2021/10/13 09:32:28;;;;;;;23.60;13.13;;;16.70;56.10;;;;;;5023205;28;20029;-84
2021/10/13 09:34:57;;;;;;;28.77;14.02;;;16.70;56.40;;;;;;5023277;28;20035;-82
2021/10/13 09:37:24;;;;;;;19.65;13.45;;;16.80;56.50;;;;;;5022108;28;20041;-84
2021/10/13 09:40:03;;;;;;;25.02;13.30;;;16.80;56.50;;;;;;5024538;28;20041;-83
2021/10/13 09:42:36;;;;;;;22.15;13.38;;;16.80;56.80;;;;;;5024200;28;20080;-84
2021/10/13 09:45:03;;;;;;;22.33;13.02;;;16.80;57.00;;;;;;5007017;28;20065;-83
2021/10/13 09:47:31;;;;;;;23.23;13.32;;;16.80;56.90;;;;;;5009156;28;20048;-85
2021/10/13 09:49:57;;;;;;;24.88;14.07;;;16.90;57.00;;;;;;5007680;28;20033;-84
2021/10/13 09:52:31;;;;;;;20.13;12.73;;;16.80;56.90;;;;;;5023485;28;20396;-85
2021/10/13 09:55:03;;;;;;;23.05;13.13;;;16.90;57.00;;;;;;5025970;28;20507;-84
2021/10/13 09:57:32;;;;;;;20.58;13.45;;;16.90;56.90;;;;;;5022818;28;20774;-83
2021/10/13 10:00:13;;;;;;;24.23;12.93;;;17.00;57.00;;;;;;5023508;28;20092;-85
2021/10/13 10:02:57;;;;;;;24.05;13.63;;;17.00;57.20;;;;;;5009535;28;20530;-83
2021/10/13 10:05:29;;;;;;;20.63;13.57;;;17.00;57.10;;;;;;5025951;28;20068;-84
2021/10/13 10:08:10;;;;;;;22.25;13.48;;;17.00;57.10;;;;;;5013779;28;20037;-85
2021/10/13 10:11:03;;;;;;;22.35;13.70;;;17.00;57.30;;;;;;5032126;28;20059;-86
2021/10/13 10:13:36;;;;;;;21.73;13.13;;;17.00;57.30;;;;;;5032811;28;20483;-85
2021/10/13 10:16:03;;;;;;;24.63;14.27;;;17.00;57.10;;;;;;5033192;28;20026;-85
2021/10/13 10:18:33;;;;;;;19.02;13.35;;;17.00;56.90;;;;;;5014245;28;20033;-83
2021/10/13 10:21:24;;;;;;;22.33;13.95;;;17.00;57.10;;;;;;5015202;28;20037;-83
2021/10/13 10:23:55;;;;;;;24.88;13.27;;;17.10;57.20;;;;;;4996806;28;20932;-83
2021/10/13 10:26:24;;;;;;;20.60;13.60;;;17.00;57.20;;;;;;5024848;28;20033;-83
2021/10/13 10:28:50;;;;;;;22.63;13.80;;;17.10;57.30;;;;;;5022377;28;20709;-82
2021/10/13 10:31:28;;;;;;;23.95;13.50;;;17.10;57.30;;;;;;5004949;28;20483;-83
2021/10/13 10:34:03;;;;;;;22.33;12.93;;;17.10;57.30;;;;;;5021903;28;20029;-81
2021/10/13 10:36:31;;;;;;;20.85;12.35;;;17.10;57.10;;;;;;5022575;28;20057;-81
2021/10/13 10:38:57;;;;;;;24.88;11.95;;;17.10;57.20;;;;;;5021423;28;20055;-84
2021/10/13 10:41:40;;;;;;;20.92;12.32;;;17.20;57.50;;;;;;5005610;28;20037;-83
2021/10/13 10:44:47;;;;;;;18.02;12.50;;;17.10;57.40;;;;;;5021778;28;20044;-84
2021/10/13 10:47:17;;;;;;;19.65;11.93;;;17.20;57.30;;;;;;4925291;29;20435;-84
2021/10/13 10:49:45;;;;;;;22.25;12.68;;;17.10;57.20;;;;;;4925763;29;20173;-85
2021/10/13 10:52:22;;;;;;;23.38;13.52;;;17.20;57.30;;;;;;4976139;28;20048;-83
2021/10/13 10:54:55;;;;;;;23.08;13.73;;;17.20;57.20;;;;;;5023625;28;20034;-83
2021/10/13 10:57:35;;;;;;;20.27;12.90;;;17.20;57.10;;;;;;5011794;28;20058;-84
2021/10/13 11:00:30;;;;;;;22.92;12.63;;;17.20;56.90;;;;;;5002550;28;20040;-83
2021/10/13 11:03:22;;;;;;;21.27;12.50;;;17.30;57.00;;;;;;5001066;28;20052;-83
2021/10/13 11:05:48;;;;;;;21.55;12.90;;;17.30;57.10;;;;;;5002058;28;20044;-84
2021/10/13 11:08:15;;;;;;;23.17;11.75;;;17.20;57.00;;;;;;5000832;28;20037;-83
2021/10/13 11:10:42;;;;;;;21.90;12.50;;;17.20;57.10;;;;;;5001911;28;20526;-82
2021/10/13 11:13:08;;;;;;;25.27;12.63;;;17.30;57.00;;;;;;5004382;28;20191;-82
2021/10/13 11:15:38;;;;;;;22.13;12.82;;;17.30;56.80;;;;;;4984456;28;20029;-82
2021/10/13 11:18:10;;;;;;;21.30;12.48;;;17.30;56.80;;;;;;5003719;28;20045;-83
2021/10/13 11:20:36;;;;;;;23.98;13.02;;;17.40;56.70;;;;;;5003672;28;20030;-83
2021/10/13 11:23:04;;;;;;;20.20;12.68;;;17.40;56.70;;;;;;5004364;28;20052;-84
2021/10/13 11:25:31;;;;;;;17.25;12.48;;;17.30;56.80;;;;;;5003803;28;20093;-81
2021/10/13 11:28:11;;;;;;;19.17;12.43;;;17.40;56.70;;;;;;5002476;28;20030;-84
2021/10/13 11:30:38;;;;;;;20.75;13.25;;;17.40;56.50;;;;;;4985781;28;20117;-82
2021/10/13 11:33:05;;;;;;;22.70;13.05;;;17.40;56.60;;;;;;5004065;28;20034;-82
2021/10/13 11:35:32;;;;;;;22.83;12.45;;;17.40;56.60;;;;;;4988333;28;20058;-84
2021/10/13 11:37:58;;;;;;;26.35;13.95;;;17.40;56.80;;;;;;5001248;28;20031;-83
2021/10/13 11:40:26;;;;;;;24.67;13.20;;;17.40;56.80;;;;;;5001435;28;20040;-83
2021/10/13 11:42:56;;;;;;;20.25;12.65;;;17.40;56.80;;;;;;5001245;28;20499;-83
2021/10/13 11:45:22;;;;;;;21.92;12.35;;;17.50;57.00;;;;;;5003071;28;20038;-82
2021/10/13 11:47:48;;;;;;;20.50;13.52;;;17.50;57.20;;;;;;4988494;28;20042;-84
2021/10/13 11:50:22;;;;;;;21.73;13.10;;;17.50;57.10;;;;;;5002422;28;20080;-82
2021/10/13 11:52:56;;;;;;;22.10;14.05;;;17.50;57.00;;;;;;5004564;28;20034;-82
2021/10/13 11:55:26;;;;;;;23.20;13.47;;;17.50;57.00;;;;;;4987389;28;20405;-83
2021/10/13 11:57:54;;;;;;;21.33;13.40;;;17.50;57.30;;;;;;5021605;28;20284;-82
2021/10/13 12:00:34;;;;;;;24.48;13.55;;;17.50;57.00;;;;;;5004397;28;20052;-83
2021/10/13 12:03:05;;;;;;;19.95;12.85;;;17.50;56.70;;;;;;5021621;28;20029;-83
2021/10/13 12:05:38;;;;;;;20.13;12.75;;;17.50;56.60;;;;;;5005598;28;20067;-83
2021/10/13 12:08:07;;;;;;;20.92;12.93;;;17.50;56.50;;;;;;5004116;28;20029;-83
2021/10/13 12:10:39;;;;;;;20.40;12.70;;;17.50;56.40;;;;;;5004488;28;20054;-83
2021/10/13 12:13:07;;;;;;;19.05;12.63;;;17.50;56.40;;;;;;5021580;28;20036;-85
2021/10/13 12:15:33;;;;;;;21.50;13.25;;;17.50;56.40;;;;;;5021931;28;20111;-83
2021/10/13 12:18:10;;;;;;;21.67;13.00;;;17.50;56.50;;;;;;5012999;28;20187;-85
2021/10/13 12:20:36;;;;;;;23.38;12.65;;;17.50;56.50;;;;;;5000880;28;20403;-85
2021/10/13 12:23:10;;;;;;;21.42;13.90;;;17.50;56.50;;;;;;5012639;28;20030;-83
2021/10/13 12:25:36;;;;;;;24.33;13.93;;;17.50;56.40;;;;;;5032033;28;20038;-84
2021/10/13 12:28:11;;;;;;;20.60;13.60;;;17.50;56.40;;;;;;5030752;28;20033;-86
2021/10/13 12:30:37;;;;;;;26.67;14.20;;;17.50;56.50;;;;;;5032963;28;20441;-85
2021/10/13 12:33:18;;;;;;;23.27;14.15;;;17.50;56.60;;;;;;5031195;28;20092;-84
2021/10/13 12:35:45;;;;;;;23.95;15.10;;;17.50;56.80;;;;;;5031988;28;20065;-85
2021/10/13 12:38:23;;;;;;;27.75;16.05;;;17.50;56.70;;;;;;5028762;28;20060;-84
2021/10/13 12:41:06;;;;;;;27.13;16.83;;;17.50;56.70;;;;;;5033268;28;20563;-84